sensor_id;sensor_type;location;lat;lon;timestamp;P1;durP1;ratioP1;P2;durP2;ratioP2
79074;SDS011;68476;42.710;23.388;2023-10-13T00:01:55;11.88;;;7.55;;
79074;SDS011;68476;42.710;23.388;2023-10-13T00:04:23;14.48;;;8.15;;
79074;SDS011;68476;42.710;23.388;2023-10-13T00:06:56;11.35;;;7.57;;
79074;SDS011;68476;42.710;23.388;2023-10-13T00:09:27;11.07;;;7.88;;
79074;SDS011;68476;42.710;23.388;2023-10-13T00:11:58;13.93;;;7.93;;
79074;SDS011;68476;42.710;23.388;2023-10-13T00:14:24;14.93;;;7.93;;
79074;SDS011;68476;42.710;23.388;2023-10-13T00:16:58;11.85;;;7.63;;
79074;SDS011;68476;42.710;23.388;2023-10-13T00:19:37;19.92;;;8.68;;
79074;SDS011;68476;42.710;23.388;2023-10-13T00:22:06;12.30;;;7.47;;
79074;SDS011;68476;42.710;23.388;2023-10-13T00:24:35;13.23;;;7.80;;
79074;SDS011;68476;42.710;23.388;2023-10-13T00:27:08;12.65;;;7.88;;
79074;SDS011;68476;42.710;23.388;2023-10-13T00:29:36;12.05;;;7.72;;
79074;SDS011;68476;42.710;23.388;2023-10-13T00:32:02;11.38;;;7.85;;
79074;SDS011;68476;42.710;23.388;2023-10-13T00:34:28;12.93;;;7.50;;
79074;SDS011;68476;42.710;23.388;2023-10-13T00:36:53;10.40;;;7.97;;
79074;SDS011;68476;42.710;23.388;2023-10-13T00:39:37;13.02;;;7.57;;
79074;SDS011;68476;42.710;23.388;2023-10-13T00:42:05;14.20;;;7.80;;
79074;SDS011;68476;42.710;23.388;2023-10-13T00:44:42;14.15;;;8.40;;
79074;SDS011;68476;42.710;23.388;2023-10-13T00:47:10;11.38;;;7.95;;
79074;SDS011;68476;42.710;23.388;2023-10-13T00:49:41;14.50;;;8.30;;
79074;SDS011;68476;42.710;23.388;2023-10-13T00:52:08;11.18;;;7.93;;
79074;SDS011;68476;42.710;23.388;2023-10-13T00:54:36;11.15;;;7.35;;
79074;SDS011;68476;42.710;23.388;2023-10-13T00:57:02;13.38;;;8.05;;
79074;SDS011;68476;42.710;23.388;2023-10-13T00:59:37;15.75;;;8.18;;
79074;SDS011;68476;42.710;23.388;2023-10-13T01:02:02;11.68;;;8.52;;
79074;SDS011;68476;42.710;23.388;2023-10-13T01:04:46;15.55;;;8.40;;
79074;SDS011;68476;42.710;23.388;2023-10-13T01:07:12;11.80;;;8.20;;
79074;SDS011;68476;42.710;23.388;2023-10-13T01:09:40;14.85;;;8.95;;
79074;SDS011;68476;42.710;23.388;2023-10-13T01:12:07;12.05;;;8.35;;
79074;SDS011;68476;42.710;23.388;2023-10-13T01:14:33;12.60;;;8.10;;
79074;SDS011;68476;42.710;23.388;2023-10-13T01:17:00;12.30;;;8.15;;
79074;SDS011;68476;42.710;23.388;2023-10-13T01:19:26;15.25;;;8.77;;
79074;SDS011;68476;42.710;23.388;2023-10-13T01:21:52;11.27;;;8.20;;
79074;SDS011;68476;42.710;23.388;2023-10-13T01:24:29;12.80;;;8.20;;
79074;SDS011;68476;42.710;23.388;2023-10-13T01:26:59;14.50;;;8.55;;
79074;SDS011;68476;42.710;23.388;2023-10-13T01:29:32;13.98;;;7.80;;
79074;SDS011;68476;42.710;23.388;2023-10-13T01:31:58;14.48;;;7.63;;
79074;SDS011;68476;42.710;23.388;2023-10-13T01:34:23;13.25;;;8.30;;
79074;SDS011;68476;42.710;23.388;2023-10-13T01:36:52;11.15;;;7.93;;
79074;SDS011;68476;42.710;23.388;2023-10-13T01:39:18;13.20;;;7.95;;
79074;SDS011;68476;42.710;23.388;2023-10-13T01:41:44;11.82;;;7.75;;
79074;SDS011;68476;42.710;23.388;2023-10-13T01:44:10;14.05;;;8.13;;
79074;SDS011;68476;42.710;23.388;2023-10-13T01:46:39;12.05;;;7.60;;
79074;SDS011;68476;42.710;23.388;2023-10-13T01:49:07;11.82;;;7.85;;
79074;SDS011;68476;42.710;23.388;2023-10-13T01:51:33;12.38;;;8.57;;
79074;SDS011;68476;42.710;23.388;2023-10-13T01:53:58;16.75;;;8.55;;
79074;SDS011;68476;42.710;23.388;2023-10-13T01:56:24;14.88;;;8.27;;
79074;SDS011;68476;42.710;23.388;2023-10-13T01:58:49;15.35;;;8.73;;
79074;SDS011;68476;42.710;23.388;2023-10-13T02:01:15;15.93;;;8.32;;
79074;SDS011;68476;42.710;23.388;2023-10-13T02:03:55;12.80;;;8.50;;
79074;SDS011;68476;42.710;23.388;2023-10-13T02:06:28;15.20;;;8.90;;
79074;SDS011;68476;42.710;23.388;2023-10-13T02:08:57;15.90;;;8.50;;
79074;SDS011;68476;42.710;23.388;2023-10-13T02:11:27;14.52;;;8.30;;
79074;SDS011;68476;42.710;23.388;2023-10-13T02:13:52;14.30;;;7.57;;
79074;SDS011;68476;42.710;23.388;2023-10-13T02:16:19;14.15;;;7.78;;
79074;SDS011;68476;42.710;23.388;2023-10-13T02:18:46;14.25;;;8.00;;
79074;SDS011;68476;42.710;23.388;2023-10-13T02:21:16;12.43;;;8.02;;
79074;SDS011;68476;42.710;23.388;2023-10-13T02:23:42;15.63;;;7.80;;
79074;SDS011;68476;42.710;23.388;2023-10-13T02:26:13;11.40;;;7.88;;
79074;SDS011;68476;42.710;23.388;2023-10-13T02:28:55;10.35;;;7.45;;
79074;SDS011;68476;42.710;23.388;2023-10-13T02:31:22;12.65;;;7.57;;
79074;SDS011;68476;42.710;23.388;2023-10-13T02:33:49;12.98;;;8.32;;
79074;SDS011;68476;42.710;23.388;2023-10-13T02:36:14;13.10;;;7.97;;
79074;SDS011;68476;42.710;23.388;2023-10-13T02:38:47;11.45;;;7.68;;
79074;SDS011;68476;42.710;23.388;2023-10-13T02:41:13;14.25;;;8.55;;
79074;SDS011;68476;42.710;23.388;2023-10-13T02:43:50;13.52;;;7.90;;
79074;SDS011;68476;42.710;23.388;2023-10-13T02:46:16;15.15;;;8.48;;
79074;SDS011;68476;42.710;23.388;2023-10-13T02:48:41;14.60;;;8.53;;
79074;SDS011;68476;42.710;23.388;2023-10-13T02:51:07;12.65;;;8.73;;
79074;SDS011;68476;42.710;23.388;2023-10-13T02:53:43;12.98;;;8.77;;
79074;SDS011;68476;42.710;23.388;2023-10-13T02:56:12;13.05;;;8.70;;
79074;SDS011;68476;42.710;23.388;2023-10-13T02:58:38;12.13;;;8.55;;
79074;SDS011;68476;42.710;23.388;2023-10-13T03:01:07;13.02;;;8.77;;
79074;SDS011;68476;42.710;23.388;2023-10-13T03:03:42;13.50;;;8.57;;
79074;SDS011;68476;42.710;23.388;2023-10-13T03:06:08;12.40;;;8.82;;
79074;SDS011;68476;42.710;23.388;2023-10-13T03:08:37;12.07;;;8.57;;
79074;SDS011;68476;42.710;23.388;2023-10-13T03:11:02;13.27;;;8.50;;
79074;SDS011;68476;42.710;23.388;2023-10-13T03:13:31;15.10;;;9.05;;
79074;SDS011;68476;42.710;23.388;2023-10-13T03:16:00;13.20;;;8.73;;
79074;SDS011;68476;42.710;23.388;2023-10-13T03:18:25;12.05;;;8.27;;
79074;SDS011;68476;42.710;23.388;2023-10-13T03:20:51;13.80;;;8.43;;
79074;SDS011;68476;42.710;23.388;2023-10-13T03:23:22;10.50;;;8.48;;
79074;SDS011;68476;42.710;23.388;2023-10-13T03:25:49;13.27;;;9.15;;
79074;SDS011;68476;42.710;23.388;2023-10-13T03:28:20;13.13;;;9.20;;
79074;SDS011;68476;42.710;23.388;2023-10-13T03:30:49;14.25;;;9.75;;
79074;SDS011;68476;42.710;23.388;2023-10-13T03:33:17;16.77;;;9.23;;
79074;SDS011;68476;42.710;23.388;2023-10-13T03:35:51;13.50;;;9.10;;
79074;SDS011;68476;42.710;23.388;2023-10-13T03:38:24;14.38;;;8.77;;
79074;SDS011;68476;42.710;23.388;2023-10-13T03:40:52;15.15;;;8.27;;
79074;SDS011;68476;42.710;23.388;2023-10-13T03:43:37;14.10;;;10.35;;
79074;SDS011;68476;42.710;23.388;2023-10-13T03:46:32;13.95;;;8.40;;
79074;SDS011;68476;42.710;23.388;2023-10-13T03:48:58;15.95;;;9.57;;
79074;SDS011;68476;42.710;23.388;2023-10-13T03:51:26;13.93;;;9.50;;
79074;SDS011;68476;42.710;23.388;2023-10-13T03:53:55;14.57;;;9.02;;
79074;SDS011;68476;42.710;23.388;2023-10-13T03:56:22;14.23;;;9.23;;
79074;SDS011;68476;42.710;23.388;2023-10-13T03:59:03;14.15;;;8.88;;
79074;SDS011;68476;42.710;23.388;2023-10-13T04:01:34;15.15;;;8.95;;
79074;SDS011;68476;42.710;23.388;2023-10-13T04:04:10;18.05;;;8.82;;
79074;SDS011;68476;42.710;23.388;2023-10-13T04:06:59;12.45;;;8.68;;
79074;SDS011;68476;42.710;23.388;2023-10-13T04:09:39;13.18;;;9.20;;
79074;SDS011;68476;42.710;23.388;2023-10-13T04:12:05;14.75;;;9.45;;
79074;SDS011;68476;42.710;23.388;2023-10-13T04:14:32;17.58;;;8.32;;
79074;SDS011;68476;42.710;23.388;2023-10-13T04:17:15;12.95;;;8.60;;
79074;SDS011;68476;42.710;23.388;2023-10-13T04:19:47;14.10;;;8.90;;
79074;SDS011;68476;42.710;23.388;2023-10-13T04:22:31;14.95;;;9.63;;
79074;SDS011;68476;42.710;23.388;2023-10-13T04:25:16;12.68;;;9.25;;
79074;SDS011;68476;42.710;23.388;2023-10-13T04:28:04;13.07;;;8.38;;
79074;SDS011;68476;42.710;23.388;2023-10-13T04:30:45;14.88;;;9.02;;
79074;SDS011;68476;42.710;23.388;2023-10-13T04:38:58;19.55;;;9.00;;
79074;SDS011;68476;42.710;23.388;2023-10-13T04:41:30;18.27;;;10.18;;
79074;SDS011;68476;42.710;23.388;2023-10-13T04:44:12;21.25;;;10.60;;
79074;SDS011;68476;42.710;23.388;2023-10-13T04:46:57;16.08;;;10.55;;
79074;SDS011;68476;42.710;23.388;2023-10-13T04:49:25;13.57;;;9.15;;
79074;SDS011;68476;42.710;23.388;2023-10-13T04:51:57;18.95;;;9.88;;
79074;SDS011;68476;42.710;23.388;2023-10-13T04:54:35;20.77;;;12.10;;
79074;SDS011;68476;42.710;23.388;2023-10-13T04:57:10;19.30;;;11.27;;
79074;SDS011;68476;42.710;23.388;2023-10-13T04:59:54;16.92;;;10.05;;
79074;SDS011;68476;42.710;23.388;2023-10-13T05:02:34;21.23;;;11.95;;
79074;SDS011;68476;42.710;23.388;2023-10-13T05:05:00;30.55;;;19.90;;
79074;SDS011;68476;42.710;23.388;2023-10-13T05:07:32;15.02;;;10.77;;
79074;SDS011;68476;42.710;23.388;2023-10-13T05:10:16;16.48;;;9.88;;
79074;SDS011;68476;42.710;23.388;2023-10-13T05:13:00;15.15;;;9.05;;
79074;SDS011;68476;42.710;23.388;2023-10-13T05:15:48;18.27;;;10.13;;
79074;SDS011;68476;42.710;23.388;2023-10-13T05:18:32;23.23;;;9.77;;
79074;SDS011;68476;42.710;23.388;2023-10-13T05:21:16;17.33;;;9.13;;
79074;SDS011;68476;42.710;23.388;2023-10-13T05:24:00;11.07;;;8.52;;
79074;SDS011;68476;42.710;23.388;2023-10-13T05:26:44;12.05;;;8.70;;
79074;SDS011;68476;42.710;23.388;2023-10-13T05:29:28;13.35;;;8.20;;
79074;SDS011;68476;42.710;23.388;2023-10-13T05:32:12;14.70;;;8.25;;
79074;SDS011;68476;42.710;23.388;2023-10-13T05:34:56;11.65;;;8.30;;
79074;SDS011;68476;42.710;23.388;2023-10-13T05:37:40;13.57;;;9.07;;
79074;SDS011;68476;42.710;23.388;2023-10-13T05:40:24;14.27;;;8.93;;
79074;SDS011;68476;42.710;23.388;2023-10-13T05:43:08;14.65;;;8.52;;
79074;SDS011;68476;42.710;23.388;2023-10-13T05:45:52;25.30;;;9.82;;
79074;SDS011;68476;42.710;23.388;2023-10-13T05:48:36;14.85;;;8.85;;
79074;SDS011;68476;42.710;23.388;2023-10-13T05:51:28;13.35;;;9.02;;
79074;SDS011;68476;42.710;23.388;2023-10-13T05:54:17;15.82;;;8.18;;
79074;SDS011;68476;42.710;23.388;2023-10-13T05:56:43;12.63;;;8.65;;
79074;SDS011;68476;42.710;23.388;2023-10-13T05:59:27;15.30;;;8.63;;
79074;SDS011;68476;42.710;23.388;2023-10-13T06:02:12;17.63;;;9.00;;
79074;SDS011;68476;42.710;23.388;2023-10-13T06:04:56;11.85;;;7.78;;
79074;SDS011;68476;42.710;23.388;2023-10-13T06:07:40;14.48;;;8.25;;
79074;SDS011;68476;42.710;23.388;2023-10-13T06:10:24;10.52;;;8.25;;
79074;SDS011;68476;42.710;23.388;2023-10-13T06:13:08;10.20;;;7.55;;
79074;SDS011;68476;42.710;23.388;2023-10-13T06:15:52;16.13;;;8.23;;
79074;SDS011;68476;42.710;23.388;2023-10-13T06:18:36;13.35;;;8.68;;
79074;SDS011;68476;42.710;23.388;2023-10-13T06:21:34;14.85;;;8.38;;
79074;SDS011;68476;42.710;23.388;2023-10-13T06:24:17;11.63;;;8.23;;
79074;SDS011;68476;42.710;23.388;2023-10-13T06:27:01;13.40;;;8.30;;
79074;SDS011;68476;42.710;23.388;2023-10-13T06:29:45;11.38;;;8.73;;
79074;SDS011;68476;42.710;23.388;2023-10-13T06:32:11;12.43;;;8.63;;
79074;SDS011;68476;42.710;23.388;2023-10-13T06:34:37;14.40;;;9.60;;
79074;SDS011;68476;42.710;23.388;2023-10-13T06:37:12;15.65;;;10.10;;
79074;SDS011;68476;42.710;23.388;2023-10-13T06:39:59;13.13;;;8.68;;
79074;SDS011;68476;42.710;23.388;2023-10-13T06:42:30;14.73;;;9.25;;
79074;SDS011;68476;42.710;23.388;2023-10-13T06:44:59;16.13;;;10.00;;
79074;SDS011;68476;42.710;23.388;2023-10-13T06:47:33;18.63;;;9.60;;
79074;SDS011;68476;42.710;23.388;2023-10-13T06:49:58;13.90;;;9.65;;
79074;SDS011;68476;42.710;23.388;2023-10-13T06:52:25;15.23;;;9.70;;
79074;SDS011;68476;42.710;23.388;2023-10-13T06:54:54;20.38;;;10.13;;
79074;SDS011;68476;42.710;23.388;2023-10-13T06:57:20;19.23;;;10.57;;
79074;SDS011;68476;42.710;23.388;2023-10-13T06:59:46;15.35;;;9.75;;
79074;SDS011;68476;42.710;23.388;2023-10-13T07:02:11;13.27;;;11.07;;
79074;SDS011;68476;42.710;23.388;2023-10-13T07:04:46;17.92;;;11.02;;
79074;SDS011;68476;42.710;23.388;2023-10-13T07:07:12;24.67;;;12.85;;
79074;SDS011;68476;42.710;23.388;2023-10-13T07:09:40;23.90;;;12.65;;
79074;SDS011;68476;42.710;23.388;2023-10-13T07:12:06;19.05;;;11.50;;
79074;SDS011;68476;42.710;23.388;2023-10-13T07:14:34;15.27;;;11.48;;
79074;SDS011;68476;42.710;23.388;2023-10-13T07:17:05;15.55;;;13.15;;
79074;SDS011;68476;42.710;23.388;2023-10-13T07:19:32;16.40;;;11.40;;
79074;SDS011;68476;42.710;23.388;2023-10-13T07:21:59;22.65;;;11.43;;
79074;SDS011;68476;42.710;23.388;2023-10-13T07:24:28;20.88;;;11.50;;
79074;SDS011;68476;42.710;23.388;2023-10-13T07:26:59;17.55;;;11.20;;
79074;SDS011;68476;42.710;23.388;2023-10-13T07:29:31;15.10;;;11.20;;
79074;SDS011;68476;42.710;23.388;2023-10-13T07:32:00;15.40;;;11.30;;
79074;SDS011;68476;42.710;23.388;2023-10-13T07:34:28;22.75;;;11.30;;
79074;SDS011;68476;42.710;23.388;2023-10-13T07:36:57;15.43;;;10.88;;
79074;SDS011;68476;42.710;23.388;2023-10-13T07:39:26;14.40;;;11.68;;
79074;SDS011;68476;42.710;23.388;2023-10-13T07:41:53;17.40;;;10.40;;
79074;SDS011;68476;42.710;23.388;2023-10-13T07:44:29;15.02;;;9.88;;
79074;SDS011;68476;42.710;23.388;2023-10-13T07:46:57;16.15;;;11.50;;
79074;SDS011;68476;42.710;23.388;2023-10-13T07:49:37;14.02;;;10.00;;
79074;SDS011;68476;42.710;23.388;2023-10-13T07:52:12;17.05;;;10.85;;
79074;SDS011;68476;42.710;23.388;2023-10-13T07:54:46;15.32;;;10.00;;
79074;SDS011;68476;42.710;23.388;2023-10-13T07:57:14;12.73;;;8.70;;
79074;SDS011;68476;42.710;23.388;2023-10-13T07:59:40;10.10;;;8.45;;
79074;SDS011;68476;42.710;23.388;2023-10-13T08:02:13;12.00;;;8.13;;
79074;SDS011;68476;42.710;23.388;2023-10-13T08:04:40;12.93;;;8.13;;
79074;SDS011;68476;42.710;23.388;2023-10-13T08:07:05;12.18;;;6.70;;
79074;SDS011;68476;42.710;23.388;2023-10-13T08:09:40;11.98;;;7.47;;
79074;SDS011;68476;42.710;23.388;2023-10-13T08:12:06;16.60;;;8.52;;
79074;SDS011;68476;42.710;23.388;2023-10-13T08:14:35;9.85;;;7.53;;
79074;SDS011;68476;42.710;23.388;2023-10-13T08:17:02;11.48;;;8.02;;
79074;SDS011;68476;42.710;23.388;2023-10-13T08:19:32;11.40;;;7.82;;
79074;SDS011;68476;42.710;23.388;2023-10-13T08:22:10;12.48;;;8.20;;
79074;SDS011;68476;42.710;23.388;2023-10-13T08:24:49;13.55;;;7.15;;
79074;SDS011;68476;42.710;23.388;2023-10-13T08:27:15;14.77;;;7.95;;
79074;SDS011;68476;42.710;23.388;2023-10-13T08:29:41;18.35;;;9.00;;
79074;SDS011;68476;42.710;23.388;2023-10-13T08:32:26;15.63;;;9.00;;
79074;SDS011;68476;42.710;23.388;2023-10-13T08:34:57;16.98;;;8.15;;
79074;SDS011;68476;42.710;23.388;2023-10-13T08:37:23;14.88;;;9.23;;
79074;SDS011;68476;42.710;23.388;2023-10-13T08:39:49;14.15;;;8.75;;
79074;SDS011;68476;42.710;23.388;2023-10-13T08:42:43;17.30;;;9.52;;
79074;SDS011;68476;42.710;23.388;2023-10-13T08:45:12;14.57;;;8.18;;
79074;SDS011;68476;42.710;23.388;2023-10-13T08:48:01;16.70;;;10.35;;
79074;SDS011;68476;42.710;23.388;2023-10-13T08:50:44;19.88;;;10.07;;
79074;SDS011;68476;42.710;23.388;2023-10-13T08:58:27;20.38;;;10.60;;
79074;SDS011;68476;42.710;23.388;2023-10-13T09:01:12;21.75;;;11.63;;
79074;SDS011;68476;42.710;23.388;2023-10-13T09:03:39;24.88;;;11.55;;
79074;SDS011;68476;42.710;23.388;2023-10-13T09:06:06;15.85;;;11.18;;
79074;SDS011;68476;42.710;23.388;2023-10-13T09:08:32;19.45;;;10.73;;
79074;SDS011;68476;42.710;23.388;2023-10-13T09:11:20;22.17;;;11.25;;
79074;SDS011;68476;42.710;23.388;2023-10-13T09:13:51;20.52;;;12.00;;
79074;SDS011;68476;42.710;23.388;2023-10-13T09:16:17;18.52;;;10.90;;
79074;SDS011;68476;42.710;23.388;2023-10-13T09:19:08;29.65;;;11.13;;
79074;SDS011;68476;42.710;23.388;2023-10-13T09:21:40;21.90;;;12.15;;
79074;SDS011;68476;42.710;23.388;2023-10-13T09:27:02;18.92;;;10.77;;
79074;SDS011;68476;42.710;23.388;2023-10-13T09:29:30;19.70;;;11.18;;
79074;SDS011;68476;42.710;23.388;2023-10-13T09:32:00;17.05;;;11.95;;
79074;SDS011;68476;42.710;23.388;2023-10-13T09:34:26;16.25;;;10.55;;
79074;SDS011;68476;42.710;23.388;2023-10-13T09:37:00;14.48;;;11.20;;
79074;SDS011;68476;42.710;23.388;2023-10-13T09:39:28;18.25;;;10.98;;
79074;SDS011;68476;42.710;23.388;2023-10-13T09:42:05;18.63;;;10.40;;
79074;SDS011;68476;42.710;23.388;2023-10-13T09:44:35;21.15;;;10.68;;
79074;SDS011;68476;42.710;23.388;2023-10-13T09:47:02;15.55;;;10.02;;
79074;SDS011;68476;42.710;23.388;2023-10-13T09:49:43;20.95;;;11.75;;
79074;SDS011;68476;42.710;23.388;2023-10-13T09:52:15;17.25;;;10.38;;
79074;SDS011;68476;42.710;23.388;2023-10-13T09:54:47;16.10;;;10.60;;
79074;SDS011;68476;42.710;23.388;2023-10-13T09:57:24;17.45;;;9.70;;
79074;SDS011;68476;42.710;23.388;2023-10-13T10:02:58;18.63;;;10.02;;
79074;SDS011;68476;42.710;23.388;2023-10-13T10:05:25;16.38;;;10.70;;
79074;SDS011;68476;42.710;23.388;2023-10-13T10:07:57;18.70;;;10.02;;
79074;SDS011;68476;42.710;23.388;2023-10-13T10:16:06;15.07;;;8.95;;
79074;SDS011;68476;42.710;23.388;2023-10-13T10:18:33;17.80;;;9.52;;
79074;SDS011;68476;42.710;23.388;2023-10-13T10:21:05;15.63;;;9.48;;
79074;SDS011;68476;42.710;23.388;2023-10-13T10:23:35;16.05;;;9.73;;
79074;SDS011;68476;42.710;23.388;2023-10-13T10:26:12;15.23;;;9.73;;
79074;SDS011;68476;42.710;23.388;2023-10-13T10:28:43;12.98;;;9.27;;
79074;SDS011;68476;42.710;23.388;2023-10-13T10:31:09;14.13;;;7.93;;
79074;SDS011;68476;42.710;23.388;2023-10-13T10:33:37;18.30;;;8.18;;
79074;SDS011;68476;42.710;23.388;2023-10-13T10:36:03;14.63;;;8.00;;
79074;SDS011;68476;42.710;23.388;2023-10-13T10:38:30;13.02;;;7.07;;
79074;SDS011;68476;42.710;23.388;2023-10-13T10:41:00;13.80;;;7.93;;
79074;SDS011;68476;42.710;23.388;2023-10-13T10:43:35;11.13;;;7.97;;
79074;SDS011;68476;42.710;23.388;2023-10-13T10:46:25;10.70;;;6.28;;
79074;SDS011;68476;42.710;23.388;2023-10-13T10:48:52;11.65;;;6.97;;
79074;SDS011;68476;42.710;23.388;2023-10-13T10:51:21;9.93;;;7.32;;
79074;SDS011;68476;42.710;23.388;2023-10-13T10:53:47;14.65;;;7.35;;
79074;SDS011;68476;42.710;23.388;2023-10-13T10:56:14;11.00;;;6.90;;
79074;SDS011;68476;42.710;23.388;2023-10-13T10:58:57;9.48;;;5.65;;
79074;SDS011;68476;42.710;23.388;2023-10-13T11:01:23;12.02;;;6.82;;
79074;SDS011;68476;42.710;23.388;2023-10-13T11:04:01;14.40;;;7.32;;
79074;SDS011;68476;42.710;23.388;2023-10-13T11:06:33;12.05;;;6.50;;
79074;SDS011;68476;42.710;23.388;2023-10-13T11:09:06;18.73;;;6.82;;
79074;SDS011;68476;42.710;23.388;2023-10-13T11:11:46;9.57;;;5.03;;
79074;SDS011;68476;42.710;23.388;2023-10-13T11:14:24;7.40;;;5.13;;
79074;SDS011;68476;42.710;23.388;2023-10-13T11:16:50;10.40;;;5.38;;
79074;SDS011;68476;42.710;23.388;2023-10-13T11:19:17;6.57;;;4.60;;
79074;SDS011;68476;42.710;23.388;2023-10-13T11:21:45;10.57;;;5.32;;
79074;SDS011;68476;42.710;23.388;2023-10-13T11:24:12;5.88;;;4.22;;
79074;SDS011;68476;42.710;23.388;2023-10-13T11:26:38;11.07;;;4.57;;
79074;SDS011;68476;42.710;23.388;2023-10-13T11:29:18;13.32;;;4.90;;
79074;SDS011;68476;42.710;23.388;2023-10-13T11:31:45;8.05;;;4.45;;
79074;SDS011;68476;42.710;23.388;2023-10-13T11:34:11;9.20;;;4.20;;
79074;SDS011;68476;42.710;23.388;2023-10-13T11:36:36;10.75;;;4.78;;
79074;SDS011;68476;42.710;23.388;2023-10-13T11:39:01;12.23;;;5.88;;
79074;SDS011;68476;42.710;23.388;2023-10-13T11:41:27;11.05;;;5.38;;
79074;SDS011;68476;42.710;23.388;2023-10-13T11:43:59;9.60;;;5.13;;
79074;SDS011;68476;42.710;23.388;2023-10-13T11:46:38;11.77;;;4.90;;
79074;SDS011;68476;42.710;23.388;2023-10-13T11:49:10;9.70;;;4.50;;
79074;SDS011;68476;42.710;23.388;2023-10-13T11:51:38;8.75;;;4.32;;
79074;SDS011;68476;42.710;23.388;2023-10-13T11:54:04;18.17;;;5.50;;
79074;SDS011;68476;42.710;23.388;2023-10-13T11:56:30;10.02;;;4.45;;
79074;SDS011;68476;42.710;23.388;2023-10-13T11:58:55;6.47;;;3.42;;
79074;SDS011;68476;42.710;23.388;2023-10-13T12:01:26;5.72;;;3.85;;
79074;SDS011;68476;42.710;23.388;2023-10-13T12:04:11;15.18;;;4.60;;
79074;SDS011;68476;42.710;23.388;2023-10-13T12:06:55;7.13;;;3.90;;
79074;SDS011;68476;42.710;23.388;2023-10-13T12:09:39;9.43;;;4.25;;
79074;SDS011;68476;42.710;23.388;2023-10-13T12:12:17;7.32;;;3.80;;
79074;SDS011;68476;42.710;23.388;2023-10-13T12:14:42;6.93;;;3.88;;
79074;SDS011;68476;42.710;23.388;2023-10-13T12:17:17;6.55;;;3.70;;
79074;SDS011;68476;42.710;23.388;2023-10-13T12:19:51;7.22;;;3.90;;
79074;SDS011;68476;42.710;23.388;2023-10-13T12:22:16;6.57;;;3.80;;
79074;SDS011;68476;42.710;23.388;2023-10-13T12:24:50;6.90;;;4.10;;
79074;SDS011;68476;42.710;23.388;2023-10-13T12:27:18;7.63;;;4.00;;
79074;SDS011;68476;42.710;23.388;2023-10-13T12:29:44;7.60;;;3.92;;
79074;SDS011;68476;42.710;23.388;2023-10-13T12:32:12;7.90;;;3.97;;
79074;SDS011;68476;42.710;23.388;2023-10-13T12:34:38;13.40;;;3.97;;
79074;SDS011;68476;42.710;23.388;2023-10-13T12:37:22;7.75;;;3.97;;
79074;SDS011;68476;42.710;23.388;2023-10-13T12:40:06;6.78;;;3.50;;
79074;SDS011;68476;42.710;23.388;2023-10-13T12:42:51;6.63;;;3.45;;
79074;SDS011;68476;42.710;23.388;2023-10-13T12:45:41;6.20;;;3.42;;
79074;SDS011;68476;42.710;23.388;2023-10-13T12:48:25;7.10;;;3.50;;
79074;SDS011;68476;42.710;23.388;2023-10-13T12:51:09;5.43;;;3.55;;
79074;SDS011;68476;42.710;23.388;2023-10-13T12:53:53;6.65;;;3.60;;
79074;SDS011;68476;42.710;23.388;2023-10-13T12:56:19;7.97;;;3.85;;
79074;SDS011;68476;42.710;23.388;2023-10-13T12:58:54;6.53;;;3.70;;
79074;SDS011;68476;42.710;23.388;2023-10-13T13:01:19;8.50;;;3.65;;
79074;SDS011;68476;42.710;23.388;2023-10-13T13:03:49;9.02;;;3.85;;
79074;SDS011;68476;42.710;23.388;2023-10-13T13:06:18;6.65;;;3.70;;
79074;SDS011;68476;42.710;23.388;2023-10-13T13:08:50;8.23;;;3.53;;
79074;SDS011;68476;42.710;23.388;2023-10-13T13:11:15;7.50;;;3.63;;
79074;SDS011;68476;42.710;23.388;2023-10-13T13:13:41;8.45;;;3.50;;
79074;SDS011;68476;42.710;23.388;2023-10-13T13:16:06;9.05;;;3.75;;
79074;SDS011;68476;42.710;23.388;2023-10-13T13:18:32;6.88;;;3.70;;
79074;SDS011;68476;42.710;23.388;2023-10-13T13:20:59;7.03;;;3.50;;
79074;SDS011;68476;42.710;23.388;2023-10-13T13:23:25;7.20;;;3.30;;
79074;SDS011;68476;42.710;23.388;2023-10-13T13:25:51;5.95;;;3.83;;
79074;SDS011;68476;42.710;23.388;2023-10-13T13:28:16;9.27;;;3.70;;
79074;SDS011;68476;42.710;23.388;2023-10-13T13:30:42;10.63;;;4.50;;
79074;SDS011;68476;42.710;23.388;2023-10-13T13:33:07;9.05;;;3.92;;
79074;SDS011;68476;42.710;23.388;2023-10-13T13:35:41;6.93;;;3.60;;
79074;SDS011;68476;42.710;23.388;2023-10-13T13:38:09;6.22;;;3.40;;
79074;SDS011;68476;42.710;23.388;2023-10-13T13:40:55;6.82;;;3.80;;
79074;SDS011;68476;42.710;23.388;2023-10-13T13:43:21;8.65;;;3.90;;
79074;SDS011;68476;42.710;23.388;2023-10-13T13:46:22;7.00;;;3.40;;
79074;SDS011;68476;42.710;23.388;2023-10-13T13:51:16;5.45;;;3.50;;
79074;SDS011;68476;42.710;23.388;2023-10-13T13:53:44;8.55;;;3.83;;
79074;SDS011;68476;42.710;23.388;2023-10-13T13:56:11;7.50;;;4.20;;
79074;SDS011;68476;42.710;23.388;2023-10-13T13:58:40;8.32;;;3.90;;
79074;SDS011;68476;42.710;23.388;2023-10-13T14:01:05;7.88;;;3.95;;
79074;SDS011;68476;42.710;23.388;2023-10-13T14:03:40;7.85;;;3.85;;
79074;SDS011;68476;42.710;23.388;2023-10-13T14:08:53;6.80;;;3.80;;
79074;SDS011;68476;42.710;23.388;2023-10-13T14:11:31;8.05;;;3.58;;
79074;SDS011;68476;42.710;23.388;2023-10-13T14:14:06;6.90;;;3.95;;
79074;SDS011;68476;42.710;23.388;2023-10-13T14:16:41;8.70;;;4.25;;
79074;SDS011;68476;42.710;23.388;2023-10-13T14:19:12;6.95;;;3.85;;
79074;SDS011;68476;42.710;23.388;2023-10-13T14:24:03;9.80;;;4.07;;
79074;SDS011;68476;42.710;23.388;2023-10-13T14:29:03;8.70;;;4.13;;
79074;SDS011;68476;42.710;23.388;2023-10-13T14:31:33;9.30;;;4.65;;
79074;SDS011;68476;42.710;23.388;2023-10-13T14:33:59;7.63;;;3.90;;
79074;SDS011;68476;42.710;23.388;2023-10-13T14:36:24;7.57;;;4.03;;
79074;SDS011;68476;42.710;23.388;2023-10-13T14:38:53;10.50;;;4.40;;
79074;SDS011;68476;42.710;23.388;2023-10-13T14:41:19;5.57;;;3.20;;
79074;SDS011;68476;42.710;23.388;2023-10-13T14:43:44;6.35;;;3.00;;
79074;SDS011;68476;42.710;23.388;2023-10-13T14:46:15;5.47;;;3.00;;
79074;SDS011;68476;42.710;23.388;2023-10-13T14:48:44;7.28;;;3.10;;
79074;SDS011;68476;42.710;23.388;2023-10-13T14:51:10;3.00;;;2.20;;
79074;SDS011;68476;42.710;23.388;2023-10-13T14:53:38;6.15;;;2.53;;
79074;SDS011;68476;42.710;23.388;2023-10-13T14:56:07;5.38;;;2.40;;
79074;SDS011;68476;42.710;23.388;2023-10-13T14:58:33;5.97;;;2.50;;
79074;SDS011;68476;42.710;23.388;2023-10-13T15:00:59;9.40;;;3.30;;
79074;SDS011;68476;42.710;23.388;2023-10-13T15:03:25;6.50;;;2.40;;
79074;SDS011;68476;42.710;23.388;2023-10-13T15:05:51;8.18;;;2.50;;
79074;SDS011;68476;42.710;23.388;2023-10-13T15:08:16;6.30;;;2.40;;
79074;SDS011;68476;42.710;23.388;2023-10-13T15:10:43;7.22;;;2.65;;
79074;SDS011;68476;42.710;23.388;2023-10-13T15:13:10;7.07;;;2.75;;
79074;SDS011;68476;42.710;23.388;2023-10-13T15:15:35;8.95;;;2.90;;
79074;SDS011;68476;42.710;23.388;2023-10-13T15:18:00;8.32;;;2.70;;
79074;SDS011;68476;42.710;23.388;2023-10-13T15:20:26;6.55;;;2.45;;
79074;SDS011;68476;42.710;23.388;2023-10-13T15:22:51;8.05;;;2.70;;
79074;SDS011;68476;42.710;23.388;2023-10-13T15:25:24;19.75;;;3.33;;